Time;durP1;ratioP1;P1;durP2;ratioP2;P2;SDS_P1;SDS_P2;PMS_P1;PMS_P2;Temp;Humidity;BMP_temperature;BMP_pressure;BME280_temperature;BME280_humidity;BME280_pressure;Samples;Min_cycle;Max_cycle;Signal;HPM_P1;HPM_P2
2023/02/15 00:02:24;;;;;;;25.80;13.57;;;;;;;-142.75;100.00;79264.06;4935399;29;20411;-68
2023/02/15 00:04:49;;;;;;;23.47;14.03;;;;;;;-142.75;100.00;79271.94;4935360;29;20504;-67
2023/02/15 00:07:15;;;;;;;;;;;;;;;-142.75;100.00;79271.94;4935642;29;20028;-67
2023/02/15 00:09:41;;;;;;;22.43;13.13;;;;;;;-142.75;100.00;79285.75;4934148;29;20322;-67
2023/02/15 00:12:06;;;;;;;;;;;;;;;-142.75;100.00;79240.44;4935749;29;20081;-68
2023/02/15 00:14:31;;;;;;;22.20;13.77;;;;;;;-142.75;100.00;79236.50;4934258;29;19911;-68
2023/02/15 00:16:59;;;;;;;;;;;;;;;-142.75;100.00;79206.94;4935578;29;20027;-68
2023/02/15 00:19:24;;;;;;;;;;;;;;;-142.75;100.00;79216.78;4935401;29;20291;-67
2023/02/15 00:21:50;;;;;;;31.27;17.30;;;;;;;-142.75;100.00;79199.06;4934969;29;20001;-68
2023/02/15 00:24:16;;;;;;;;;;;;;;;-142.75;100.00;79173.47;4934213;29;20031;-67
2023/02/15 00:26:43;;;;;;;31.27;17.13;;;;;;;-142.75;100.00;79153.75;4949716;29;20013;-68
2023/02/15 00:29:09;;;;;;;39.10;19.53;;;;;;;-142.75;100.00;79149.81;4934640;29;20020;-67
2023/02/15 00:31:35;;;;;;;39.93;19.60;;;;;;;-142.75;100.00;79155.72;4933600;29;20022;-67
2023/02/15 00:34:05;;;;;;;;;;;;;;;-142.75;100.00;79153.75;4935321;29;20399;-67
2023/02/15 00:36:30;;;;;;;26.37;13.60;;;;;;;-142.75;100.00;79222.72;4933619;29;19918;-68
2023/02/15 00:38:56;;;;;;;;;;;;;;;-142.75;100.00;79246.34;4941707;29;20039;-67
2023/02/15 00:41:21;;;;;;;23.73;12.57;;;;;;;-142.75;100.00;79248.31;4953758;29;19965;-67
2023/02/15 00:43:46;;;;;;;;;;;;;;;-142.75;100.00;79226.66;4953041;28;20050;-68
2023/02/15 00:46:11;;;;;;;14.87;8.20;;;;;;;-142.75;100.00;79248.31;4953699;29;19921;-68
2023/02/15 00:48:37;;;;;;;;;;;;;;;-142.75;100.00;79234.53;4936664;29;20058;-68
2023/02/15 00:51:02;;;;;;;24.23;12.17;;;;;;;-142.75;100.00;79248.31;4953582;29;19984;-68
2023/02/15 00:53:28;;;;;;;;;;;;;;;-142.75;100.00;79303.47;4934846;29;20034;-68
2023/02/15 00:55:54;;;;;;;21.90;11.00;;;;;;;-142.75;100.00;79275.88;4934320;29;19933;-67
2023/02/15 00:58:19;;;;;;;;;;;;;;;-142.75;100.00;79285.75;4934597;29;20393;-67
2023/02/15 01:00:46;;;;;;;22.33;10.80;;;;;;;-142.75;100.00;79319.22;4934414;29;19910;-68
2023/02/15 01:03:12;;;;;;;19.90;10.43;;;;;;;-142.75;100.00;79311.34;4934334;29;20111;-68
2023/02/15 01:05:38;;;;;;;19.30;11.37;;;;;;;-142.75;100.00;79319.22;4934240;29;20040;-68
2023/02/15 01:08:03;;;;;;;;;;;;;;;-142.75;100.00;79313.31;4934544;29;20031;-67
2023/02/15 01:10:29;;;;;;;26.00;13.03;;;;;;;-142.75;100.00;79287.72;4934235;29;19969;-68
2023/02/15 01:12:54;;;;;;;;;;;;;;;-142.75;100.00;79242.41;4934541;29;20042;-68
2023/02/15 01:15:20;;;;;;;24.83;11.53;;;;;;;-142.75;100.00;79240.44;4934206;29;19979;-67
2023/02/15 01:17:51;;;;;;;26.90;12.07;;;;;;;-142.75;100.00;79268.00;4932573;29;20031;-67
2023/02/15 01:20:27;;;;;;;21.17;10.53;;;;;;;-142.75;100.00;79313.31;4934217;29;20199;-67
2023/02/15 01:22:53;;;;;;;;;;;;;;;-142.75;100.00;79344.84;4934363;29;20027;-68
2023/02/15 01:25:20;;;;;;;17.97;9.63;;;;;;;-142.75;100.00;79331.03;4933841;29;19917;-68
2023/02/15 01:27:46;;;;;;;17.30;9.23;;;;;;;-142.75;100.00;79331.03;4933476;29;20110;-67
2023/02/15 01:30:12;;;;;;;;;;;;;;;-142.75;100.00;79319.22;4934374;29;20473;-68
2023/02/15 01:32:38;;;;;;;17.27;10.17;;;;;;;-142.75;100.00;79293.63;4939010;29;20368;-67
2023/02/15 01:35:03;;;;;;;;;;;;;;;-142.75;100.00;79309.38;4953245;28;20035;-68
2023/02/15 01:37:32;;;;;;;16.23;9.10;;;;;;;-142.75;100.00;79340.91;4952716;29;20058;-67
2023/02/15 01:39:59;;;;;;;14.07;8.67;;;;;;;-142.75;100.00;79413.78;4952759;29;20034;-68
2023/02/15 01:42:26;;;;;;;17.97;8.53;;;;;;;-142.75;100.00;79400.00;4952655;29;20117;-68
2023/02/15 01:45:01;;;;;;;12.60;9.43;;;;;;;-142.75;100.00;79396.06;4952768;28;20023;-68
2023/02/15 01:47:47;;;;;;;17.07;9.93;;;;;;;-142.75;100.00;79374.38;4952593;29;20074;-67
2023/02/15 01:50:23;;;;;;;15.75;10.27;;;;;;;-142.75;100.00;79390.13;4952871;29;20026;-68
2023/02/15 01:52:58;;;;;;;11.57;7.43;;;;;;;-142.75;100.00;79396.06;4947846;29;20023;-68
2023/02/15 01:55:30;;;;;;;21.57;10.03;;;;;;;-142.75;100.00;79421.66;4952675;28;20094;-68
2023/02/15 01:57:55;;;;;;;16.13;10.23;;;;;;;-142.75;100.00;79392.13;4935222;29;20027;-68
2023/02/15 02:00:21;;;;;;;;;;;;;;;-142.75;100.00;79348.78;4953020;29;20409;-67
2023/02/15 02:02:50;;;;;;;26.67;12.37;;;;;;;-142.75;100.00;79329.06;4952424;29;19936;-68
2023/02/15 02:05:16;;;;;;;29.53;14.23;;;;;;;-142.75;100.00;79307.41;4952416;28;20027;-67
2023/02/15 02:07:43;;;;;;;;;;;;;;;-142.75;100.00;79303.47;4935574;29;20031;-67
2023/02/15 02:10:13;;;;;;;18.65;12.02;;;;;;;-142.75;100.00;79327.09;4952525;29;19917;-68
2023/02/15 02:12:42;;;;;;;19.93;13.30;;;;;;;-142.75;100.00;79299.53;4935250;29;20019;-68
2023/02/15 02:15:08;;;;;;;20.27;11.97;;;;;;;-142.75;100.00;79317.25;4935296;29;20070;-68
2023/02/15 02:18:12;;;;;;;19.80;12.60;;;;;;;-142.75;100.00;79321.19;4952320;29;20031;-68
2023/02/15 02:21:07;;;;;;;20.80;12.07;;;;;;;-142.75;100.00;79327.09;4951952;29;20035;-68
2023/02/15 02:24:14;;;;;;;19.03;11.43;;;;;;;-142.75;100.00;79301.50;4932821;29;20016;-67
2023/02/15 02:26:46;;;;;;;28.77;15.50;;;;;;;-142.75;100.00;79269.97;4941861;29;20062;-67
2023/02/15 02:29:23;;;;;;;25.87;14.20;;;;;;;-142.75;100.00;79250.28;4941190;29;20370;-68
2023/02/15 02:32:07;;;;;;;25.67;14.03;;;;;;;-142.75;100.00;79238.47;4935092;29;20102;-68
2023/02/15 02:34:45;;;;;;;20.90;12.63;;;;;;;-142.75;100.00;79226.66;4952326;28;20023;-68
2023/02/15 02:37:13;;;;;;;20.80;12.37;;;;;;;-142.75;100.00;79254.22;4952286;28;20016;-68
2023/02/15 02:39:56;;;;;;;18.63;11.43;;;;;;;-142.75;100.00;79281.81;4938146;29;20035;-68
2023/02/15 02:42:29;;;;;;;20.67;12.47;;;;;;;-142.75;100.00;79260.13;4936555;29;20075;-68
2023/02/15 02:45:02;;;;;;;30.67;15.47;;;;;;;-142.75;100.00;79236.50;4938644;29;20027;-68
2023/02/15 02:47:33;;;;;;;23.73;13.97;;;;;;;-142.75;100.00;79244.38;4938509;29;20019;-68
2023/02/15 02:50:00;;;;;;;20.97;12.20;;;;;;;-142.75;100.00;79220.75;4955873;29;20027;-68
2023/02/15 02:52:32;;;;;;;26.23;14.33;;;;;;;-142.75;100.00;79210.88;4938666;29;20614;-67
2023/02/15 02:54:59;;;;;;;29.17;15.43;;;;;;;-142.75;100.00;79201.03;4955599;28;20106;-68
2023/02/15 02:57:27;;;;;;;30.60;15.10;;;;;;;-142.75;100.00;79199.06;4955691;29;20015;-67
2023/02/15 02:59:56;;;;;;;24.30;14.10;;;;;;;-142.75;100.00;79191.19;4938396;29;20019;-67
2023/02/15 03:02:26;;;;;;;28.00;13.63;;;;;;;-142.75;100.00;79193.16;4955553;29;20027;-68
2023/02/15 03:05:03;;;;;;;26.40;14.20;;;;;;;-142.75;100.00;79204.97;4955582;28;20019;-68
2023/02/15 03:07:31;;;;;;;30.57;15.77;;;;;;;-142.75;100.00;79193.16;4948906;29;20102;-67
2023/02/15 03:10:00;;;;;;;27.97;14.37;;;;;;;-142.75;100.00;79193.16;4955492;29;20408;-68
2023/02/15 03:12:35;;;;;;;32.83;15.90;;;;;;;-142.75;100.00;79179.38;4938149;29;20029;-67
2023/02/15 03:15:24;;;;;;;36.37;19.73;;;;;;;-142.75;100.00;79165.59;4955343;28;20030;-67
2023/02/15 03:18:02;;;;;;;33.00;17.27;;;;;;;-142.75;100.00;79155.72;4934831;29;20046;-67
2023/02/15 03:20:36;;;;;;;35.27;18.87;;;;;;;-142.75;100.00;79149.81;4935009;29;20027;-68
2023/02/15 03:23:05;;;;;;;34.67;18.67;;;;;;;-142.75;100.00;79136.03;4936192;29;20023;-67
2023/02/15 03:25:39;;;;;;;34.57;18.87;;;;;;;-142.75;100.00;79128.16;4940531;29;20019;-67
2023/02/15 03:28:08;;;;;;;34.97;18.50;;;;;;;-142.75;100.00;79120.28;4955070;29;20019;-67
2023/02/15 03:30:36;;;;;;;32.63;17.73;;;;;;;-142.75;100.00;79112.41;4955034;29;20508;-67
2023/02/15 03:33:04;;;;;;;39.10;19.07;;;;;;;-142.75;100.00;79110.44;4955035;29;20058;-68
2023/02/15 03:36:26;;;;;;;40.63;19.43;;;;;;;-142.75;100.00;79122.25;4941855;29;20425;-67
2023/02/15 03:39:34;;;;;;;35.77;18.20;;;;;;;-142.75;100.00;79130.13;4875774;29;20044;-67
2023/02/15 03:42:25;;;;;;;;;;;;;;;-142.75;100.00;79130.13;4822077;29;20130;-67
2023/02/15 03:45:02;;;;;;;34.27;16.17;;;;;;;-142.75;100.00;79102.56;4873597;29;19911;-67
2023/02/15 03:47:32;;;;;;;30.10;15.57;;;;;;;-142.75;100.00;79110.44;4928590;29;20054;-68
2023/02/15 03:53:09;;;;;;;28.97;15.70;;;;;;;-142.75;100.00;79136.03;4954895;29;20403;-67
2023/02/15 03:55:35;;;;;;;36.80;15.80;;;;;;;-142.75;100.00;79141.94;4947508;28;20026;-67
2023/02/15 04:03:45;;;;;;;23.93;13.83;;;;;;;-142.75;100.00;79189.22;4935512;29;20047;-68
2023/02/15 04:06:10;;;;;;;21.63;10.93;;;;;;;-142.75;100.00;79204.97;4935616;29;20026;-67
2023/02/15 04:11:19;;;;;;;20.67;11.47;;;;;;;-142.75;100.00;79185.28;4935431;29;19917;-68
2023/02/15 04:13:44;;;;;;;;;;;;;;;-142.75;100.00;79181.34;4935738;29;20449;-67
2023/02/15 04:16:10;;;;;;;25.93;11.50;;;;;;;-142.75;100.00;79195.13;4937179;29;20291;-67
2023/02/15 04:26:54;;;;;;;17.87;10.23;;;;;;;-142.75;100.00;79240.44;4935394;29;20140;-68
2023/02/15 04:29:20;;;;;;;;;;;;;;;-142.75;100.00;79232.56;4935203;29;20103;-68
2023/02/15 04:31:45;;;;;;;18.37;10.70;;;;;;;-142.75;100.00;79244.38;4934981;29;20410;-68
2023/02/15 04:34:11;;;;;;;;;;;;;;;-142.75;100.00;79250.28;4935249;29;20404;-68
2023/02/15 04:36:39;;;;;;;20.57;10.33;;;;;;;-142.75;100.00;79275.88;4934931;29;19917;-67
2023/02/15 04:39:05;;;;;;;16.03;10.27;;;;;;;-142.75;100.00;79283.78;4930841;29;20052;-68
2023/02/15 04:41:30;;;;;;;;;;;;;;;-142.75;100.00;79285.75;4935143;29;20118;-68
2023/02/15 04:43:56;;;;;;;15.63;9.47;;;;;;;-142.75;100.00;79275.88;4952412;28;19954;-67
2023/02/15 04:46:21;;;;;;;;;;;;;;;-142.75;100.00;79277.88;4954269;29;20150;-68
2023/02/15 04:48:46;;;;;;;21.60;11.17;;;;;;;-142.75;100.00;79264.06;4935894;29;19942;-68
2023/02/15 04:51:12;;;;;;;;;;;;;;;-142.75;100.00;79287.72;4935068;29;20033;-68
2023/02/15 04:53:37;;;;;;;24.53;11.57;;;;;;;-142.75;100.00;79291.66;4932911;29;19917;-68
2023/02/15 04:56:02;;;;;;;;;;;;;;;-142.75;100.00;79266.03;4933687;29;20042;-68
2023/02/15 04:58:28;;;;;;;19.97;11.17;;;;;;;-142.75;100.00;79279.84;4934316;29;20299;-68
2023/02/15 05:00:56;;;;;;;;;;;;;;;-142.75;100.00;79244.38;4934329;29;20095;-68
2023/02/15 05:03:22;;;;;;;30.37;14.50;;;;;;;-142.75;100.00;79238.47;4943622;29;19914;-67
2023/02/15 05:05:47;;;;;;;;;;;;;;;-142.75;100.00;79240.44;4937199;28;20437;-68
2023/02/15 05:08:12;;;;;;;34.07;13.40;;;;;;;-142.75;100.00;79268.00;4933948;29;20364;-67
2023/02/15 05:10:38;;;;;;;22.23;12.83;;;;;;;-142.75;100.00;79283.78;4934283;29;20122;-67
2023/02/15 05:13:03;;;;;;;23.87;12.23;;;;;;;-142.75;100.00;79277.88;4934314;29;20023;-68
2023/02/15 05:15:28;;;;;;;;;;;;;;;-142.75;100.00;79266.03;4933486;29;20020;-68
2023/02/15 05:17:53;;;;;;;34.83;12.73;;;;;;;-142.75;100.00;79279.84;4933976;29;20001;-67
2023/02/15 05:20:19;;;;;;;30.43;12.53;;;;;;;-142.75;100.00;79285.75;4934054;29;20385;-68
2023/02/15 05:22:44;;;;;;;;;;;;;;;-142.75;100.00;79281.81;4934447;29;20024;-68
2023/02/15 05:28:25;;;;;;;27.57;14.07;;;;;;;-142.75;100.00;79244.38;4898173;29;20127;-67
2023/02/15 05:31:12;;;;;;;29.83;15.93;;;;;;;-142.75;100.00;79218.75;4933579;29;20040;-67
2023/02/15 05:33:38;;;;;;;33.50;17.90;;;;;;;-142.75;100.00;79210.88;4933902;29;20024;-67
2023/02/15 05:36:05;;;;;;;41.83;18.70;;;;;;;-142.75;100.00;79195.13;4934009;29;20370;-68
2023/02/15 05:38:31;;;;;;;32.40;17.10;;;;;;;-142.75;100.00;79201.03;4932377;29;20494;-67
2023/02/15 05:40:56;;;;;;;;;;;;;;;-142.75;100.00;79189.22;4932976;29;20110;-67
2023/02/15 05:43:22;;;;;;;25.00;12.70;;;;;;;-142.75;100.00;79179.38;4948373;29;19915;-67
2023/02/15 05:45:52;;;;;;;33.63;18.27;;;;;;;-142.75;100.00;79175.44;4933759;29;20122;-67
2023/02/15 05:48:19;;;;;;;30.37;16.00;;;;;;;-142.75;100.00;79177.41;4932200;29;20023;-67
2023/02/15 05:50:45;;;;;;;36.37;17.93;;;;;;;-142.75;100.00;79173.47;4933621;29;20033;-67
2023/02/15 05:53:10;;;;;;;;;;;;;;;-142.75;100.00;79171.50;4934122;29;20095;-67
2023/02/15 05:55:40;;;;;;;40.90;21.27;;;;;;;-142.75;100.00;79167.56;4932374;29;19922;-67
2023/02/15 05:58:05;;;;;;;595.57;250.70;;;;;;;-142.75;100.00;79183.31;4948528;29;20023;-67
2023/02/15 06:00:31;;;;;;;;;;;;;;;-142.75;100.00;79175.44;4943233;29;20050;-67
2023/02/15 06:02:56;;;;;;;54.07;28.23;;;;;;;-142.75;100.00;79203.00;4951191;29;20063;-68
2023/02/15 06:05:21;;;;;;;40.97;20.80;;;;;;;-142.75;100.00;79210.88;4934336;29;20472;-67
2023/02/15 06:07:47;;;;;;;;;;;;;;;-142.75;100.00;79228.63;4942149;29;20055;-67
2023/02/15 06:10:12;;;;;;;27.87;13.97;;;;;;;-142.75;100.00;79224.69;4947327;29;19911;-68
2023/02/15 06:12:37;;;;;;;40.23;18.23;;;;;;;-142.75;100.00;79208.91;4933562;29;20374;-67
2023/02/15 06:15:03;;;;;;;38.13;17.83;;;;;;;-142.75;100.00;79197.09;4937240;29;20102;-68
2023/02/15 06:17:29;;;;;;;;;;;;;;;-142.75;100.00;79193.16;4945269;29;20061;-67
2023/02/15 06:19:54;;;;;;;38.13;19.00;;;;;;;-142.75;100.00;79189.22;4939113;29;20461;-68
2023/02/15 06:22:20;;;;;;;;;;;;;;;-142.75;100.00;79181.34;4956868;29;20038;-67
2023/02/15 06:24:45;;;;;;;33.63;18.03;;;;;;;-142.75;100.00;79191.19;4956319;28;19910;-68
2023/02/15 06:27:11;;;;;;;;;;;;;;;-142.75;100.00;79199.06;4956892;29;20106;-68
2023/02/15 06:29:36;;;;;;;38.60;18.33;;;;;;;-142.75;100.00;79201.03;4943001;29;19918;-68
2023/02/15 06:32:02;;;;;;;;;;;;;;;-142.75;100.00;79193.16;4937550;29;20028;-68
2023/02/15 06:34:27;;;;;;;36.67;17.17;;;;;;;-142.75;100.00;79204.97;4936955;29;19973;-67
2023/02/15 06:36:52;;;;;;;;;;;;;;;-142.75;100.00;79204.97;4937447;29;20110;-67
2023/02/15 06:39:17;;;;;;;33.10;16.40;;;;;;;-142.75;100.00;79216.78;4936713;29;19910;-68
2023/02/15 06:41:43;;;;;;;;;;;;;;;-142.75;100.00;79228.63;4954566;29;20035;-67
2023/02/15 06:44:08;;;;;;;31.03;15.73;;;;;;;-142.75;100.00;79226.66;4936775;29;19910;-68
2023/02/15 06:46:33;;;;;;;;;;;;;;;-142.75;100.00;79220.75;4937387;29;20035;-67
2023/02/15 06:48:58;;;;;;;31.30;16.93;;;;;;;-142.75;100.00;79220.75;4936513;29;19910;-68
2023/02/15 06:51:24;;;;;;;38.03;19.23;;;;;;;-142.75;100.00;79222.72;4936781;29;20365;-67
2023/02/15 06:53:49;;;;;;;;;;;;;;;-142.75;100.00;79220.75;4936893;29;20023;-67
2023/02/15 06:56:14;;;;;;;35.03;18.70;;;;;;;-142.75;100.00;79226.66;4936800;29;19911;-67
2023/02/15 06:58:40;;;;;;;;;;;;;;;-142.75;100.00;79218.75;4944790;29;20035;-67
2023/02/15 07:01:05;;;;;;;35.27;17.73;;;;;;;-142.75;100.00;79224.69;4955664;29;20009;-67
2023/02/15 07:03:31;;;;;;;;;;;;;;;-142.75;100.00;79218.75;4955995;29;20114;-68
2023/02/15 07:05:58;;;;;;;35.40;18.07;;;;;;;-142.75;100.00;79212.84;4955621;28;19911;-68
2023/02/15 07:08:25;;;;;;;40.43;19.67;;;;;;;-142.75;100.00;79236.50;4955344;29;20034;-67
2023/02/15 07:10:51;;;;;;;33.10;18.43;;;;;;;-142.75;100.00;79216.78;4955532;29;20034;-67
2023/02/15 07:13:17;;;;;;;43.30;19.43;;;;;;;-142.75;100.00;79220.75;4955256;29;20050;-67
2023/02/15 07:15:42;;;;;;;;;;;;;;;-142.75;100.00;79204.97;4938618;29;20058;-66
2023/02/15 07:18:08;;;;;;;38.80;19.03;;;;;;;-142.75;100.00;79212.84;4955073;29;20004;-67
2023/02/15 07:20:35;;;;;;;37.37;19.30;;;;;;;-142.75;100.00;79216.78;4938162;29;20038;-68
2023/02/15 07:23:01;;;;;;;41.53;19.70;;;;;;;-142.75;100.00;79201.03;4938105;29;20058;-68
2023/02/15 07:25:26;;;;;;;;;;;;;;;-142.75;100.00;79214.81;4955377;28;20027;-67
2023/02/15 07:27:59;;;;;;;31.17;16.33;;;;;;;-142.75;100.00;79203.00;4954956;29;19910;-67
2023/02/15 07:30:25;;;;;;;44.67;18.90;;;;;;;-142.75;100.00;79208.91;4955175;29;20400;-67
2023/02/15 07:35:34;;;;;;;34.47;17.47;;;;;;;-142.75;100.00;79199.06;4942504;29;19980;-69
2023/02/15 07:38:00;;;;;;;;;;;;;;;-142.75;100.00;79197.09;4955398;28;20483;-69
2023/02/15 07:40:25;;;;;;;35.80;16.87;;;;;;;-142.75;100.00;79191.19;4955070;29;19915;-69
2023/02/15 07:42:52;;;;;;;32.30;17.87;;;;;;;-142.75;100.00;79167.56;4954868;29;20384;-67
2023/02/15 07:45:18;;;;;;;32.57;17.97;;;;;;;-142.75;100.00;79153.75;4954902;28;20051;-67
2023/02/15 07:47:44;;;;;;;;;;;;;;;-142.75;100.00;79145.88;4955183;29;20665;-66
2023/02/15 07:50:09;;;;;;;38.00;18.00;;;;;;;-142.75;100.00;79128.16;4954932;29;19910;-67
2023/02/15 07:52:34;;;;;;;;;;;;;;;-142.75;100.00;79102.56;4943904;29;20417;-67
2023/02/15 07:54:59;;;;;;;40.03;17.60;;;;;;;-142.75;100.00;79102.56;4930800;29;19954;-67
2023/02/15 07:57:25;;;;;;;;;;;;;;;-142.75;100.00;79110.44;4937859;29;20039;-67
2023/02/15 07:59:50;;;;;;;36.43;18.33;;;;;;;-142.75;100.00;79069.06;4938746;29;20257;-67
2023/02/15 08:02:15;;;;;;;;;;;;;;;-142.75;100.00;79047.41;4935709;29;20039;-67
2023/02/15 08:04:40;;;;;;;38.97;19.47;;;;;;;-142.75;100.00;79023.75;4935574;29;19910;-67
2023/02/15 08:07:06;;;;;;;;;;;;;;;-142.75;100.00;79015.88;4936786;29;20024;-67
2023/02/15 08:09:32;;;;;;;44.80;21.10;;;;;;;-142.75;100.00;79008.00;4938095;29;20349;-67
2023/02/15 08:11:57;;;;;;;39.77;19.13;;;;;;;-142.75;100.00;78994.22;4932950;29;20046;-67
2023/02/15 08:14:22;;;;;;;;;;;;;;;-142.75;100.00;79015.88;4935879;29;20040;-67
2023/02/15 08:16:49;;;;;;;43.07;19.87;;;;;;;-142.75;100.00;79031.66;4934310;29;19911;-67
2023/02/15 08:19:21;;;;;;;44.03;19.97;;;;;;;-142.75;100.00;79043.47;4932606;29;20023;-67
2023/02/15 08:21:52;;;;;;;44.00;20.67;;;;;;;-142.75;100.00;79025.72;4934793;29;20039;-67
2023/02/15 08:24:20;;;;;;;43.63;21.87;;;;;;;-142.75;100.00;79045.44;4933781;29;20055;-67
2023/02/15 08:26:47;;;;;;;48.90;22.20;;;;;;;-142.75;100.00;79029.66;4935087;29;20020;-67
2023/02/15 08:29:17;;;;;;;42.07;21.40;;;;;;;-142.75;100.00;79009.97;4934729;29;20103;-68
2023/02/15 08:31:42;;;;;;;46.63;22.63;;;;;;;-142.75;100.00;79008.00;4933855;29;20027;-67
2023/02/15 08:34:09;;;;;;;;;;;;;;;-142.75;100.00;79004.06;4935421;29;20028;-67
2023/02/15 08:36:34;;;;;;;42.27;21.17;;;;;;;-142.75;100.00;78988.31;4933997;29;20008;-67
2023/02/15 08:39:01;;;;;;;;;;;;;;;-142.75;100.00;78964.69;4935163;29;20539;-68
2023/02/15 08:41:31;;;;;;;47.55;22.98;;;;;;;-142.75;100.00;78948.91;4934747;29;19914;-68
2023/02/15 08:43:59;;;;;;;48.20;23.43;;;;;;;-142.75;100.00;78893.78;4934626;29;20384;-68
2023/02/15 08:46:27;;;;;;;47.13;23.50;;;;;;;-142.75;100.00;78858.31;4934781;29;20362;-68
2023/02/15 08:48:53;;;;;;;48.47;24.13;;;;;;;-142.75;100.00;78822.88;4934381;29;20023;-68
2023/02/15 08:51:20;;;;;;;;;;;;;;;-142.75;100.00;78805.13;4935013;29;20102;-68
2023/02/15 08:53:48;;;;;;;58.10;22.73;;;;;;;-142.75;100.00;78799.22;4934397;29;20430;-68
2023/02/15 08:56:15;;;;;;;54.80;23.77;;;;;;;-142.75;100.00;78783.47;4933236;29;20024;-68
2023/02/15 08:58:40;;;;;;;50.13;22.83;;;;;;;-142.75;100.00;78779.53;4933007;29;20023;-68
2023/02/15 09:01:10;;;;;;;;;;;;;;;-142.75;100.00;78734.22;4934905;29;20492;-68
2023/02/15 09:03:35;;;;;;;48.40;23.37;;;;;;;-142.75;100.00;78742.09;4934155;29;19941;-68
2023/02/15 09:06:01;;;;;;;;;;;;;;;-142.75;100.00;78718.47;4933530;29;20466;-68
2023/02/15 09:08:27;;;;;;;44.37;22.53;;;;;;;-142.75;100.00;78685.00;4934093;29;20431;-68
2023/02/15 09:10:53;;;;;;;44.57;24.27;;;;;;;-142.75;100.00;78657.41;4934355;29;20023;-68
2023/02/15 09:13:18;;;;;;;;;;;;;;;-142.75;100.00;78610.16;4934652;29;20155;-68
2023/02/15 09:15:44;;;;;;;50.27;22.50;;;;;;;-142.75;100.00;78568.78;4934186;29;19915;-68
2023/02/15 09:18:09;;;;;;;;;;;;;;;-142.75;100.00;78547.13;4934406;29;20024;-68
2023/02/15 09:20:37;;;;;;;47.90;21.47;;;;;;;-142.75;100.00;78497.91;4934066;29;20379;-68
2023/02/15 09:23:03;;;;;;;45.73;23.60;;;;;;;-142.75;100.00;78507.75;4934012;29;20044;-68
2023/02/15 09:25:28;;;;;;;;;;;;;;;-142.75;100.00;78440.78;4934482;29;20396;-68
2023/02/15 09:27:54;;;;;;;50.27;24.00;;;;;;;-142.75;100.00;78444.72;4948607;29;20348;-67
2023/02/15 09:30:19;;;;;;;;;;;;;;;-142.75;100.00;78413.22;4934441;29;20524;-67
2023/02/15 09:32:45;;;;;;;42.97;21.87;;;;;;;-142.75;100.00;78444.72;4951750;29;19925;-67
2023/02/15 09:35:12;;;;;;;42.77;23.73;;;;;;;-142.75;100.00;78417.16;4935833;29;20067;-67
2023/02/15 09:37:37;;;;;;;;;;;;;;;-142.75;100.00;78377.75;4953360;29;20109;-67
2023/02/15 09:40:04;;;;;;;43.10;23.30;;;;;;;-142.75;100.00;78328.53;4952788;29;19910;-68
2023/02/15 09:42:55;;;;;;;50.57;25.20;;;;;;;-142.75;100.00;78324.59;4935464;29;20031;-67
2023/02/15 09:45:41;;;;;;;46.33;24.67;;;;;;;-142.75;100.00;78300.97;4952681;28;20027;-69
2023/02/15 09:48:12;;;;;;;43.85;23.08;;;;;;;-142.75;100.00;78287.16;4952434;28;20050;-67
2023/02/15 09:50:45;;;;;;;43.65;23.90;;;;;;;-142.75;100.00;78306.88;4952746;29;20110;-67
2023/02/15 09:53:34;;;;;;;48.08;24.33;;;;;;;-142.75;100.00;78269.44;4952990;29;20433;-67
2023/02/15 09:56:15;;;;;;;45.20;23.73;;;;;;;-142.75;100.00;78255.66;4933566;29;20028;-68
2023/02/15 09:59:08;;;;;;;48.58;23.90;;;;;;;-142.75;100.00;78247.78;4932061;29;20030;-68
2023/02/15 10:01:39;;;;;;;47.35;23.38;;;;;;;-142.75;100.00;78206.44;4932481;29;20027;-68
2023/02/15 10:04:07;;;;;;;49.80;23.42;;;;;;;-142.75;100.00;78188.72;4933404;29;20024;-67
2023/02/15 10:06:41;;;;;;;47.97;24.33;;;;;;;-142.75;100.00;78190.69;4933546;29;20027;-69
2023/02/15 10:09:25;;;;;;;43.13;23.67;;;;;;;-142.75;100.00;78271.41;4947203;29;20023;-68
2023/02/15 10:12:02;;;;;;;41.85;22.10;;;;;;;-142.75;100.00;78267.47;4930363;29;20473;-68
2023/02/15 10:14:39;;;;;;;46.65;23.52;;;;;;;-142.75;100.00;78222.19;4933358;29;20098;-66
2023/02/15 10:17:23;;;;;;;49.92;23.10;;;;;;;-142.75;100.00;78247.78;4933560;29;20083;-68
2023/02/15 10:19:59;;;;;;;48.80;23.08;;;;;;;-142.75;100.00;78310.81;4932100;29;20429;-67
2023/02/15 10:22:27;;;;;;;48.58;25.08;;;;;;;-142.75;100.00;78259.59;4933529;29;20039;-67
2023/02/15 10:25:18;;;;;;;52.10;24.83;;;;;;;-142.75;100.00;78251.72;4933218;29;20046;-68
2023/02/15 10:27:49;;;;;;;50.15;23.85;;;;;;;-142.75;100.00;78218.25;4925044;29;20092;-68
2023/02/15 10:30:16;;;;;;;53.72;25.08;;;;;;;-142.75;100.00;78234.00;4935267;29;20029;-68
2023/02/15 10:32:45;;;;;;;51.80;24.33;;;;;;;-142.75;100.00;78261.56;4952926;29;20481;-67
2023/02/15 10:35:23;;;;;;;47.03;23.67;;;;;;;-142.75;100.00;78318.69;4952744;28;20053;-68
2023/02/15 10:38:15;;;;;;;45.28;23.85;;;;;;;-142.75;100.00;78271.41;4933149;29;20024;-67
2023/02/15 10:40:53;;;;;;;50.25;24.50;;;;;;;-142.75;100.00;78271.41;4932201;29;20032;-68
2023/02/15 10:43:49;;;;;;;48.00;24.33;;;;;;;-142.75;100.00;78255.66;4931779;29;20027;-67
2023/02/15 10:46:25;;;;;;;47.83;23.15;;;;;;;-142.75;100.00;78204.47;4933282;29;20023;-68
2023/02/15 10:49:17;;;;;;;45.85;23.35;;;;;;;-142.75;100.00;78176.88;4947782;29;20023;-68
2023/02/15 10:51:52;;;;;;;48.10;23.95;;;;;;;-142.75;100.00;78228.09;4952393;29;20034;-68
2023/02/15 10:54:50;;;;;;;48.72;26.02;;;;;;;-142.75;100.00;78161.13;4931784;29;20028;-67
2023/02/15 10:57:51;;;;;;;45.40;24.02;;;;;;;-142.75;100.00;78165.06;4924907;29;20040;-67
2023/02/15 11:00:28;;;;;;;47.83;23.17;;;;;;;-142.75;100.00;78107.97;4935643;29;20086;-67
2023/02/15 11:03:18;;;;;;;50.90;24.27;;;;;;;-142.75;100.00;78060.72;4945768;29;20060;-68
2023/02/15 11:06:10;;;;;;;49.60;24.25;;;;;;;-142.75;100.00;78027.22;4933481;29;20127;-68
2023/02/15 11:08:42;;;;;;;54.13;24.17;;;;;;;-142.75;100.00;78021.31;4935437;29;20028;-67
2023/02/15 11:11:14;;;;;;;50.42;23.48;;;;;;;-142.75;100.00;77972.09;4936633;29;20465;-68
2023/02/15 11:13:46;;;;;;;44.83;23.05;;;;;;;-142.75;100.00;77948.47;4935117;29;20036;-68
2023/02/15 11:16:17;;;;;;;53.90;24.83;;;;;;;-142.75;100.00;77987.84;4936361;29;20122;-68
2023/02/15 11:18:55;;;;;;;46.13;24.42;;;;;;;-142.75;100.00;77979.97;4936072;29;20493;-66
2023/02/15 11:21:27;;;;;;;53.28;24.80;;;;;;;-142.75;100.00;77954.38;4936335;29;20024;-69
2023/02/15 11:23:54;;;;;;;51.22;24.88;;;;;;;-142.75;100.00;77928.78;4934733;29;20042;-69
2023/02/15 11:26:33;;;;;;;44.80;23.40;;;;;;;-142.75;100.00;77857.88;4934935;29;20473;-69
2023/02/15 11:29:17;;;;;;;44.10;25.35;;;;;;;-142.75;100.00;77881.50;4935872;29;20031;-69
2023/02/15 11:31:54;;;;;;;48.90;24.08;;;;;;;-142.75;100.00;77958.31;4936181;29;20054;-68
2023/02/15 11:34:25;;;;;;;47.05;24.27;;;;;;;-142.75;100.00;77940.59;4935900;29;20024;-68
2023/02/15 11:36:54;;;;;;;51.70;25.23;;;;;;;-142.75;100.00;77944.53;4952135;29;20031;-68
2023/02/15 11:39:21;;;;;;;48.85;22.65;;;;;;;-142.75;100.00;77976.03;4954883;29;20432;-68
2023/02/15 11:41:54;;;;;;;48.90;23.75;;;;;;;-142.75;100.00;77964.22;4954729;29;20103;-68
2023/02/15 11:44:31;;;;;;;47.72;24.20;;;;;;;-142.75;100.00;78003.59;4954927;28;20023;-68
2023/02/15 11:46:56;;;;;;;51.17;24.55;;;;;;;-142.75;100.00;78039.03;4954849;29;20027;-68
2023/02/15 11:49:32;;;;;;;44.15;24.30;;;;;;;-142.75;100.00;78009.50;4954689;29;20035;-68
2023/02/15 11:52:04;;;;;;;44.05;24.73;;;;;;;-142.75;100.00;78015.41;4935335;29;20023;-68